Time;durP1;ratioP1;P1;durP2;ratioP2;P2;SDS_P1;SDS_P2;PMS_P1;PMS_P2;Temp;Humidity;BMP_temperature;BMP_pressure;BME280_temperature;BME280_humidity;BME280_pressure;Samples;Min_cycle;Max_cycle;Signal;HPM_P1;HPM_P2
2022/07/27 00:00:51;;;;;;;8.48;2.10;;;16.20;99.90;;;;;;5101420;28;20115;-64
2022/07/27 00:03:17;;;;;;;5.68;1.75;;;16.20;99.90;;;;;;5104591;28;20433;-65
2022/07/27 00:05:42;;;;;;;5.60;1.65;;;16.20;99.90;;;;;;5104235;28;20040;-65
2022/07/27 00:08:08;;;;;;;6.65;1.63;;;16.30;99.90;;;;;;5100950;28;20047;-65
2022/07/27 00:10:35;;;;;;;4.78;1.50;;;16.30;99.90;;;;;;5101797;28;20041;-65
2022/07/27 00:13:03;;;;;;;7.47;1.70;;;16.30;99.90;;;;;;5096161;28;20040;-65
2022/07/27 00:15:29;;;;;;;6.28;1.35;;;16.20;99.90;;;;;;5110639;28;20046;-65
2022/07/27 00:17:57;;;;;;;6.32;1.50;;;16.20;99.90;;;;;;5107565;28;20040;-65
2022/07/27 00:20:22;;;;;;;6.50;1.27;;;16.20;99.90;;;;;;5109013;28;20050;-65
2022/07/27 00:22:48;;;;;;;4.88;1.27;;;16.20;99.90;;;;;;5109487;28;20047;-65
2022/07/27 00:25:13;;;;;;;4.57;1.10;;;16.10;99.90;;;;;;5109847;28;20044;-65
2022/07/27 00:27:39;;;;;;;4.68;1.25;;;16.10;99.90;;;;;;5109440;28;20059;-65
2022/07/27 00:30:05;;;;;;;5.38;1.25;;;16.00;99.90;;;;;;5109903;28;20040;-65
2022/07/27 00:32:30;;;;;;;6.05;1.33;;;16.00;99.90;;;;;;5109077;28;20043;-65
2022/07/27 00:34:56;;;;;;;6.35;1.25;;;15.90;99.90;;;;;;5111000;28;20054;-66
2022/07/27 00:37:21;;;;;;;4.47;1.17;;;15.90;99.90;;;;;;5107796;28;20324;-66
2022/07/27 00:39:47;;;;;;;4.53;1.30;;;15.80;99.90;;;;;;5109912;28;20079;-66
2022/07/27 00:42:13;;;;;;;3.70;1.20;;;15.80;99.90;;;;;;5109654;28;20047;-66
2022/07/27 00:44:39;;;;;;;5.68;1.10;;;15.80;99.90;;;;;;5109319;28;20073;-66
2022/07/27 00:47:04;;;;;;;6.50;1.52;;;15.70;99.90;;;;;;5108534;28;20406;-66
2022/07/27 00:49:30;;;;;;;5.75;1.40;;;15.70;99.90;;;;;;5109745;28;20040;-66
2022/07/27 00:51:55;;;;;;;4.40;1.27;;;15.70;99.90;;;;;;5103985;28;20077;-66
2022/07/27 00:54:21;;;;;;;4.13;1.25;;;15.70;99.90;;;;;;5110531;28;20040;-66
2022/07/27 00:56:48;;;;;;;2.33;0.95;;;15.60;99.90;;;;;;5108824;28;20096;-66
2022/07/27 00:59:14;;;;;;;4.68;1.40;;;15.60;99.90;;;;;;5106993;28;20039;-66
2022/07/27 01:01:40;;;;;;;4.32;1.40;;;15.60;99.90;;;;;;5105028;28;20498;-66
2022/07/27 01:04:07;;;;;;;4.22;1.58;;;15.50;99.90;;;;;;5102280;27;20028;-66
2022/07/27 01:06:33;;;;;;;6.82;1.95;;;15.60;99.90;;;;;;5105194;27;20040;-66
2022/07/27 01:11:44;;;;;;;;;;;15.60;99.90;;;;;;5106642;28;20097;-66
2022/07/27 01:14:15;;;;;;;5.53;1.60;;;15.60;99.90;;;;;;5109163;28;19925;-65
2022/07/27 01:16:41;;;;;;;5.03;1.33;;;15.50;99.90;;;;;;5103224;28;20666;-65
2022/07/27 01:19:08;;;;;;;4.25;1.40;;;15.50;99.90;;;;;;5102101;28;20035;-65
2022/07/27 01:21:34;;;;;;;5.10;1.40;;;15.50;99.90;;;;;;5108854;28;20051;-65
2022/07/27 01:24:00;;;;;;;3.60;1.55;;;15.50;99.90;;;;;;5108496;28;20048;-65
2022/07/27 01:26:27;;;;;;;5.40;1.52;;;15.50;99.90;;;;;;5107486;28;20058;-65
2022/07/27 01:29:00;;;;;;;3.50;1.23;;;15.50;99.90;;;;;;5108402;28;20374;-65
2022/07/27 01:31:26;;;;;;;5.65;1.55;;;15.50;99.90;;;;;;5108175;28;20500;-65
2022/07/27 01:33:51;;;;;;;8.57;1.60;;;15.50;99.90;;;;;;5102504;28;20347;-65
2022/07/27 01:36:17;;;;;;;3.85;1.50;;;15.50;99.90;;;;;;5101366;28;20043;-65
2022/07/27 01:38:43;;;;;;;4.70;1.65;;;15.40;99.90;;;;;;5107471;28;20047;-65
2022/07/27 01:41:09;;;;;;;3.22;1.40;;;15.40;99.90;;;;;;5106935;28;20032;-65
2022/07/27 01:43:34;;;;;;;4.45;1.75;;;15.40;99.90;;;;;;5106750;28;20043;-66
2022/07/27 01:46:00;;;;;;;5.63;1.88;;;15.30;99.90;;;;;;5107400;28;20035;-65
2022/07/27 01:48:26;;;;;;;9.00;1.65;;;15.30;99.90;;;;;;5101399;28;20084;-66
2022/07/27 01:50:52;;;;;;;5.10;1.77;;;15.20;99.90;;;;;;5107092;28;20090;-65
2022/07/27 01:53:19;;;;;;;5.75;1.80;;;15.20;99.90;;;;;;5107676;28;20119;-66
2022/07/27 01:55:46;;;;;;;5.35;1.77;;;15.10;99.90;;;;;;5108059;28;20043;-65
2022/07/27 01:58:11;;;;;;;5.00;2.00;;;15.10;99.90;;;;;;5106855;28;20569;-65
2022/07/27 02:00:38;;;;;;;5.53;1.73;;;15.00;99.90;;;;;;5094644;28;20118;-66
2022/07/27 02:03:05;;;;;;;4.78;1.70;;;15.00;99.90;;;;;;5105097;28;20037;-66
2022/07/27 02:05:30;;;;;;;4.47;1.50;;;15.00;99.90;;;;;;5109108;28;20046;-65
2022/07/27 02:07:56;;;;;;;4.70;1.92;;;14.90;99.90;;;;;;5104034;28;20056;-65
2022/07/27 02:10:22;;;;;;;6.60;1.85;;;14.90;99.90;;;;;;5107112;28;20160;-65
2022/07/27 02:12:49;;;;;;;5.40;1.88;;;14.80;99.90;;;;;;5107974;28;20073;-65
2022/07/27 02:15:18;;;;;;;6.53;1.77;;;14.80;99.90;;;;;;5095683;28;20407;-66
2022/07/27 02:17:44;;;;;;;5.22;1.67;;;14.80;99.90;;;;;;5102280;28;20109;-66
2022/07/27 02:20:10;;;;;;;5.47;1.58;;;14.80;99.90;;;;;;5089133;28;20047;-65
2022/07/27 02:22:36;;;;;;;3.80;1.45;;;14.70;99.90;;;;;;5093399;28;20350;-65
2022/07/27 02:25:03;;;;;;;6.32;1.83;;;14.60;99.90;;;;;;5107630;28;20040;-65
2022/07/27 02:27:29;;;;;;;5.50;1.52;;;14.60;99.90;;;;;;5106638;28;20066;-65
2022/07/27 02:29:55;;;;;;;4.22;1.52;;;14.60;99.90;;;;;;5106079;28;20035;-65
2022/07/27 02:32:21;;;;;;;3.90;1.20;;;14.60;99.90;;;;;;5109156;28;20157;-66
2022/07/27 02:34:46;;;;;;;4.38;1.50;;;14.60;99.90;;;;;;5112166;28;20063;-65
2022/07/27 02:37:12;;;;;;;5.50;1.35;;;14.50;99.90;;;;;;5109959;28;20047;-65
2022/07/27 02:39:38;;;;;;;4.40;1.65;;;14.50;99.90;;;;;;5112203;28;20479;-65
2022/07/27 02:42:04;;;;;;;4.45;1.50;;;14.40;99.90;;;;;;5108290;28;20046;-66
2022/07/27 02:44:30;;;;;;;5.20;1.75;;;14.50;99.90;;;;;;5112035;28;20043;-66
2022/07/27 02:46:55;;;;;;;4.43;1.80;;;14.40;99.90;;;;;;5108675;28;20046;-65
2022/07/27 02:49:21;;;;;;;4.10;1.50;;;14.40;99.90;;;;;;5110528;28;20032;-65
2022/07/27 02:51:51;;;;;;;4.88;1.50;;;14.40;99.90;;;;;;5109302;28;20480;-65
2022/07/27 02:54:18;;;;;;;4.28;1.52;;;14.30;99.90;;;;;;5112773;28;20115;-65
2022/07/27 02:56:43;;;;;;;4.10;1.48;;;14.30;99.90;;;;;;5111030;28;20463;-65
2022/07/27 02:59:09;;;;;;;3.88;1.33;;;14.20;99.90;;;;;;5108295;28;20042;-65
2022/07/27 03:01:35;;;;;;;5.00;1.70;;;14.20;99.90;;;;;;5104488;27;20123;-66
2022/07/27 03:04:00;;;;;;;5.45;1.50;;;14.20;99.90;;;;;;5104596;28;20059;-65
2022/07/27 03:06:26;;;;;;;3.58;1.40;;;14.20;99.90;;;;;;5111800;28;20545;-65
2022/07/27 03:08:51;;;;;;;3.88;1.50;;;14.10;99.90;;;;;;5107724;28;20050;-65
2022/07/27 03:11:17;;;;;;;4.20;1.40;;;14.10;99.90;;;;;;5110208;28;20482;-65
2022/07/27 03:13:42;;;;;;;3.45;1.40;;;14.10;99.90;;;;;;5108686;28;20039;-65
2022/07/27 03:16:08;;;;;;;4.45;1.75;;;14.00;99.90;;;;;;5111532;28;20115;-65
2022/07/27 03:18:34;;;;;;;7.50;1.85;;;14.10;99.90;;;;;;5109990;28;20470;-65
2022/07/27 03:20:59;;;;;;;3.25;1.60;;;14.00;99.90;;;;;;5106641;28;20534;-65
2022/07/27 03:23:25;;;;;;;4.97;1.60;;;14.00;99.90;;;;;;5101841;28;20067;-65
2022/07/27 03:25:51;;;;;;;5.57;1.80;;;14.00;99.90;;;;;;5108753;28;20036;-65
2022/07/27 03:28:16;;;;;;;4.72;2.00;;;13.90;99.90;;;;;;5103507;28;20405;-65
2022/07/27 03:30:42;;;;;;;5.88;1.70;;;13.90;99.90;;;;;;5105139;28;20112;-64
2022/07/27 03:33:08;;;;;;;4.72;1.58;;;13.90;99.90;;;;;;5108419;28;20070;-64
2022/07/27 03:35:33;;;;;;;7.40;2.03;;;13.90;99.90;;;;;;5111739;28;20035;-65
2022/07/27 03:37:59;;;;;;;3.83;1.58;;;13.80;99.90;;;;;;5108401;28;20100;-64
2022/07/27 03:40:28;;;;;;;4.55;1.70;;;13.80;99.90;;;;;;5109304;28;20046;-65
2022/07/27 03:42:53;;;;;;;4.25;1.60;;;13.80;99.90;;;;;;5108042;28;20043;-65
2022/07/27 03:45:19;;;;;;;4.30;1.58;;;13.80;99.90;;;;;;5110261;28;20042;-65
2022/07/27 03:47:44;;;;;;;4.15;1.60;;;13.70;99.90;;;;;;5105384;28;20112;-65
2022/07/27 03:50:11;;;;;;;3.00;1.55;;;13.80;99.90;;;;;;5110850;28;20063;-65
2022/07/27 03:52:36;;;;;;;3.40;1.70;;;13.70;99.90;;;;;;5101050;28;20170;-65
2022/07/27 03:55:02;;;;;;;3.42;1.40;;;13.70;99.90;;;;;;5109442;28;20423;-65
2022/07/27 03:57:28;;;;;;;5.38;1.80;;;13.70;99.90;;;;;;5099276;28;20127;-65
2022/07/27 03:59:53;;;;;;;3.42;1.40;;;13.70;99.90;;;;;;5105783;28;20247;-65
2022/07/27 04:02:19;;;;;;;3.90;1.40;;;13.70;99.90;;;;;;5101167;28;20054;-65
2022/07/27 04:04:45;;;;;;;3.55;1.33;;;13.70;99.90;;;;;;5108229;28;20058;-65
2022/07/27 04:07:10;;;;;;;3.08;1.20;;;13.70;99.90;;;;;;5100960;28;20105;-65
2022/07/27 04:09:36;;;;;;;5.75;1.40;;;13.70;99.90;;;;;;5110633;28;20058;-65
2022/07/27 04:12:02;;;;;;;5.78;1.73;;;13.70;99.90;;;;;;5109682;28;20140;-65
2022/07/27 04:14:28;;;;;;;4.45;1.58;;;13.70;99.90;;;;;;5111140;28;20066;-65
2022/07/27 04:16:53;;;;;;;5.00;1.40;;;13.70;99.90;;;;;;5107935;28;20427;-66
2022/07/27 04:19:19;;;;;;;3.65;1.50;;;13.70;99.90;;;;;;5109070;28;20144;-65
2022/07/27 04:21:44;;;;;;;4.40;1.50;;;13.70;99.90;;;;;;5100500;28;20051;-65
2022/07/27 04:24:10;;;;;;;3.35;1.38;;;13.60;99.90;;;;;;5109508;28;20479;-65
2022/07/27 04:26:36;;;;;;;3.60;1.33;;;13.70;99.90;;;;;;5107171;28;20118;-65
2022/07/27 04:29:01;;;;;;;3.85;1.60;;;13.70;99.90;;;;;;5099416;28;20053;-65
2022/07/27 04:31:27;;;;;;;4.35;1.58;;;13.70;99.90;;;;;;5101553;28;20139;-65
2022/07/27 04:33:52;;;;;;;2.92;1.30;;;13.80;99.90;;;;;;5109814;28;20503;-65
2022/07/27 04:36:18;;;;;;;5.13;1.40;;;13.80;99.90;;;;;;5110423;28;20046;-65
2022/07/27 04:38:46;;;;;;;5.72;1.45;;;13.80;99.90;;;;;;5107724;28;20079;-65
2022/07/27 04:41:12;;;;;;;3.78;1.52;;;13.90;99.90;;;;;;5108403;27;20035;-66
2022/07/27 04:43:38;;;;;;;5.68;2.03;;;13.90;99.90;;;;;;5109012;28;20066;-66
2022/07/27 04:46:04;;;;;;;4.50;1.50;;;14.00;99.90;;;;;;5106252;28;20039;-66
2022/07/27 04:48:34;;;;;;;3.92;1.40;;;14.10;99.90;;;;;;5109063;28;20043;-65
2022/07/27 04:51:00;;;;;;;4.72;1.60;;;14.20;99.90;;;;;;5109073;28;20065;-65
2022/07/27 04:53:26;;;;;;;3.70;1.52;;;14.20;99.90;;;;;;5108122;28;20104;-65
2022/07/27 04:55:52;;;;;;;5.05;1.75;;;14.30;99.90;;;;;;5109810;28;20044;-65
2022/07/27 04:58:17;;;;;;;5.45;1.60;;;14.30;99.90;;;;;;5105368;28;20043;-65
2022/07/27 05:00:43;;;;;;;4.40;1.63;;;14.40;99.90;;;;;;5104662;28;20058;-66
2022/07/27 05:03:09;;;;;;;5.70;1.80;;;14.40;99.90;;;;;;5103448;28;20058;-66
2022/07/27 05:05:36;;;;;;;5.20;2.00;;;14.40;99.90;;;;;;5109915;28;20115;-65
2022/07/27 05:08:02;;;;;;;4.68;1.70;;;14.40;99.90;;;;;;5106992;28;20059;-65
2022/07/27 05:10:28;;;;;;;3.55;1.70;;;14.40;99.90;;;;;;5103615;28;20031;-66
2022/07/27 05:12:53;;;;;;;3.25;1.60;;;14.40;99.90;;;;;;5106194;28;20043;-66
2022/07/27 05:15:19;;;;;;;5.20;1.80;;;14.40;99.90;;;;;;5108821;28;20085;-66
2022/07/27 05:17:45;;;;;;;4.18;1.95;;;14.40;99.90;;;;;;5107312;28;20047;-66
2022/07/27 05:20:12;;;;;;;4.97;2.00;;;14.40;99.90;;;;;;5108765;28;20039;-64
2022/07/27 05:22:37;;;;;;;7.43;2.30;;;14.50;99.90;;;;;;5109056;28;20048;-64
2022/07/27 05:25:03;;;;;;;5.20;1.90;;;14.50;99.90;;;;;;5108368;28;20048;-64
2022/07/27 05:27:29;;;;;;;7.07;2.08;;;14.60;99.90;;;;;;5099737;28;20036;-64
2022/07/27 05:29:55;;;;;;;4.03;2.00;;;14.70;99.90;;;;;;5105909;28;20047;-64
2022/07/27 05:32:20;;;;;;;4.85;1.77;;;14.80;99.90;;;;;;5106535;28;20046;-65
2022/07/27 05:34:46;;;;;;;4.95;2.00;;;14.90;99.90;;;;;;5108562;28;20374;-65
2022/07/27 05:37:11;;;;;;;6.65;1.88;;;15.10;99.90;;;;;;5097729;28;20366;-66
2022/07/27 05:39:37;;;;;;;5.05;1.60;;;15.20;99.90;;;;;;5102113;28;20051;-64
2022/07/27 05:42:04;;;;;;;5.00;1.70;;;15.30;99.90;;;;;;5105036;28;20044;-64
2022/07/27 05:44:29;;;;;;;6.25;1.60;;;15.40;99.90;;;;;;5110618;28;20035;-65
2022/07/27 05:46:55;;;;;;;5.57;1.50;;;15.40;99.90;;;;;;5107298;28;20371;-64
2022/07/27 05:49:21;;;;;;;4.65;1.50;;;15.50;99.90;;;;;;5109262;28;20036;-64
2022/07/27 05:51:47;;;;;;;3.90;1.63;;;15.60;99.90;;;;;;5104108;28;20383;-64
2022/07/27 05:54:13;;;;;;;6.35;1.60;;;15.70;99.90;;;;;;5108021;28;20039;-65
2022/07/27 05:56:38;;;;;;;8.05;1.55;;;15.70;99.90;;;;;;5107734;28;20040;-65
2022/07/27 05:59:04;;;;;;;5.95;1.60;;;15.80;99.90;;;;;;5108055;28;20042;-65
2022/07/27 06:01:30;;;;;;;8.05;1.88;;;15.80;99.90;;;;;;5105098;28;20104;-65
2022/07/27 06:03:55;;;;;;;8.10;1.90;;;15.90;99.90;;;;;;5107176;28;20039;-65
2022/07/27 06:09:05;;;;;;;7.10;1.88;;;16.00;99.90;;;;;;5107482;28;20066;-65
2022/07/27 06:11:31;;;;;;;6.45;1.85;;;16.10;99.90;;;;;;5106958;28;20039;-65
2022/07/27 06:13:57;;;;;;;7.85;1.85;;;16.10;99.90;;;;;;5106126;28;20104;-64
2022/07/27 06:16:23;;;;;;;8.57;1.80;;;16.10;99.90;;;;;;5107130;28;20071;-65
2022/07/27 06:18:49;;;;;;;9.48;2.08;;;16.20;99.90;;;;;;5107634;28;20043;-65
2022/07/27 06:21:15;;;;;;;6.55;2.10;;;16.30;99.90;;;;;;5107721;28;20439;-65
2022/07/27 06:23:40;;;;;;;7.22;1.80;;;16.40;99.90;;;;;;5106379;28;20423;-65
2022/07/27 06:26:06;;;;;;;5.32;1.67;;;16.50;99.90;;;;;;5107656;28;20097;-65
2022/07/27 06:28:31;;;;;;;8.43;2.25;;;16.50;99.90;;;;;;5107712;28;20531;-65
2022/07/27 06:30:58;;;;;;;8.30;2.10;;;16.60;99.90;;;;;;5105384;28;20108;-65
2022/07/27 06:33:27;;;;;;;7.30;1.83;;;16.60;99.90;;;;;;5104990;28;20517;-65
2022/07/27 06:35:57;;;;;;;9.00;2.00;;;16.60;99.90;;;;;;5108228;28;20039;-65
2022/07/27 06:38:23;;;;;;;5.10;1.90;;;16.70;99.90;;;;;;5106096;28;20133;-65
2022/07/27 06:40:51;;;;;;;9.18;2.35;;;16.80;99.90;;;;;;5108679;28;20047;-65
2022/07/27 06:43:26;;;;;;;5.65;1.80;;;16.80;99.90;;;;;;5105072;28;20486;-65
2022/07/27 06:45:53;;;;;;;5.72;1.77;;;16.80;99.90;;;;;;5106209;28;20385;-65
2022/07/27 06:48:20;;;;;;;7.15;1.92;;;16.90;99.90;;;;;;5107131;28;20191;-65
2022/07/27 06:50:46;;;;;;;6.50;2.17;;;17.00;99.90;;;;;;5107597;28;20486;-65
2022/07/27 06:53:12;;;;;;;7.18;1.90;;;17.00;99.90;;;;;;5106190;28;20032;-65
2022/07/27 06:55:37;;;;;;;8.43;2.45;;;17.10;99.90;;;;;;5107465;28;20050;-65
2022/07/27 06:58:03;;;;;;;7.18;1.90;;;17.20;99.90;;;;;;5105050;28;20486;-65
2022/07/27 07:00:29;;;;;;;6.93;1.90;;;17.30;99.90;;;;;;5106117;28;20039;-65
2022/07/27 07:03:00;;;;;;;6.97;2.00;;;17.30;99.90;;;;;;5105997;28;20040;-65
2022/07/27 07:05:26;;;;;;;7.00;1.95;;;17.50;99.90;;;;;;5106259;28;20046;-65
2022/07/27 07:07:52;;;;;;;8.25;1.95;;;17.50;99.90;;;;;;5105615;28;20126;-65
2022/07/27 07:10:18;;;;;;;5.22;1.65;;;17.50;99.90;;;;;;5107398;28;20159;-65
2022/07/27 07:12:45;;;;;;;6.75;1.85;;;17.50;99.90;;;;;;5107153;28;20373;-65
2022/07/27 07:15:12;;;;;;;4.93;1.75;;;17.50;99.90;;;;;;5105463;28;20047;-65
2022/07/27 07:17:38;;;;;;;8.38;2.25;;;17.50;99.90;;;;;;5105935;28;20039;-65
2022/07/27 07:20:05;;;;;;;6.63;1.70;;;17.50;99.90;;;;;;5110306;28;20035;-65
2022/07/27 07:22:33;;;;;;;5.38;2.00;;;17.60;99.90;;;;;;5111068;28;20031;-65
2022/07/27 07:24:59;;;;;;;6.47;1.92;;;17.80;99.90;;;;;;5109640;28;20489;-65
2022/07/27 07:27:25;;;;;;;6.47;1.70;;;18.00;99.90;;;;;;5096488;28;20044;-65
2022/07/27 07:29:51;;;;;;;6.55;1.95;;;18.10;99.90;;;;;;5110629;28;20551;-65
2022/07/27 07:32:21;;;;;;;5.85;1.95;;;18.30;99.90;;;;;;5108289;28;20123;-65
2022/07/27 07:34:48;;;;;;;6.50;1.40;;;18.50;99.90;;;;;;5111080;28;20557;-65
2022/07/27 07:37:14;;;;;;;4.90;1.50;;;18.50;99.90;;;;;;5110531;28;20395;-65
2022/07/27 07:39:40;;;;;;;5.35;1.52;;;18.50;99.90;;;;;;5110366;28;20055;-65
2022/07/27 07:42:06;;;;;;;5.47;1.50;;;18.50;99.90;;;;;;5110563;28;20404;-65
2022/07/27 07:44:31;;;;;;;6.85;1.58;;;18.60;99.90;;;;;;5109303;28;20111;-66
2022/07/27 07:46:57;;;;;;;4.00;1.20;;;18.70;99.90;;;;;;5108870;28;20039;-66
2022/07/27 07:49:22;;;;;;;5.85;1.50;;;18.70;99.90;;;;;;5110844;28;20067;-65
2022/07/27 07:51:48;;;;;;;6.40;1.33;;;18.90;99.90;;;;;;5108651;28;20040;-66
2022/07/27 07:54:14;;;;;;;6.07;1.40;;;19.10;99.90;;;;;;5109513;28;20059;-65
2022/07/27 07:56:39;;;;;;;6.18;1.70;;;19.20;99.90;;;;;;5109468;28;20071;-65
2022/07/27 07:59:05;;;;;;;7.07;1.40;;;19.20;99.90;;;;;;5110191;28;20486;-65
2022/07/27 08:01:30;;;;;;;4.55;1.40;;;19.30;99.90;;;;;;5109231;28;20079;-65
2022/07/27 08:03:56;;;;;;;5.50;1.25;;;19.50;99.60;;;;;;5109544;28;20115;-65
2022/07/27 08:06:21;;;;;;;6.45;1.60;;;19.70;99.50;;;;;;5110572;28;20035;-65
2022/07/27 08:08:47;;;;;;;5.68;1.35;;;19.70;99.10;;;;;;5108864;28;20052;-65
2022/07/27 08:11:13;;;;;;;5.38;1.17;;;19.80;98.80;;;;;;5109623;28;20347;-65
2022/07/27 08:13:38;;;;;;;4.32;1.20;;;19.80;98.80;;;;;;5109925;28;20347;-65
2022/07/27 08:16:04;;;;;;;4.00;0.80;;;19.90;98.50;;;;;;5109358;28;20482;-65
2022/07/27 08:18:30;;;;;;;6.30;1.15;;;19.80;97.90;;;;;;5108723;28;20044;-65
2022/07/27 08:20:55;;;;;;;5.93;1.00;;;19.80;97.20;;;;;;5109428;28;20043;-65
2022/07/27 08:23:21;;;;;;;4.78;1.10;;;20.00;96.90;;;;;;5107838;28;20122;-65
2022/07/27 08:25:46;;;;;;;5.22;1.10;;;20.10;96.20;;;;;;5110578;28;20168;-65
2022/07/27 08:28:12;;;;;;;5.13;1.00;;;20.00;95.30;;;;;;5108133;28;20092;-67
2022/07/27 08:30:37;;;;;;;6.97;1.27;;;20.00;95.20;;;;;;5107895;28;20107;-65
2022/07/27 08:33:04;;;;;;;4.70;0.90;;;20.20;95.50;;;;;;5098564;28;20503;-65
2022/07/27 08:35:31;;;;;;;5.50;1.42;;;20.40;95.20;;;;;;5110047;28;20052;-65
2022/07/27 08:37:58;;;;;;;5.80;1.10;;;20.50;94.40;;;;;;5106558;28;20435;-65
2022/07/27 08:40:24;;;;;;;5.45;1.23;;;20.70;94.20;;;;;;5109184;28;20051;-65
2022/07/27 08:42:50;;;;;;;5.75;1.42;;;20.90;93.80;;;;;;5108432;28;20055;-65
2022/07/27 08:45:17;;;;;;;5.32;1.40;;;21.00;93.50;;;;;;5109089;28;20035;-65
2022/07/27 08:47:44;;;;;;;4.47;1.10;;;20.90;92.30;;;;;;5108416;28;20146;-65
2022/07/27 08:50:22;;;;;;;4.07;1.08;;;21.00;92.60;;;;;;5107292;28;20032;-65
2022/07/27 08:53:03;;;;;;;3.80;0.90;;;21.10;91.80;;;;;;5104065;28;20126;-65
2022/07/27 08:55:35;;;;;;;5.75;1.25;;;21.00;90.90;;;;;;5108949;28;20062;-65
2022/07/27 08:58:01;;;;;;;3.55;1.20;;;20.80;91.10;;;;;;5108490;28;20086;-65
2022/07/27 09:00:28;;;;;;;5.78;1.40;;;20.70;91.30;;;;;;5108688;28;20035;-65
2022/07/27 09:02:54;;;;;;;5.43;1.33;;;20.90;91.60;;;;;;5107913;28;20519;-66
2022/07/27 09:05:20;;;;;;;7.18;1.80;;;21.00;91.70;;;;;;5109706;28;20044;-66
2022/07/27 09:07:46;;;;;;;4.60;1.10;;;21.20;91.40;;;;;;5108825;28;20489;-65
2022/07/27 09:10:32;;;;;;;6.00;1.00;;;20.90;91.10;;;;;;5106035;28;20101;-65
2022/07/27 09:12:58;;;;;;;4.82;1.02;;;20.80;90.40;;;;;;5107310;28;20114;-65
2022/07/27 09:15:24;;;;;;;4.00;0.88;;;20.90;90.00;;;;;;5109268;28;20549;-66
2022/07/27 09:17:50;;;;;;;3.47;1.00;;;21.10;88.80;;;;;;5107279;28;20134;-66
2022/07/27 09:20:18;;;;;;;2.25;0.70;;;21.40;88.00;;;;;;5108602;28;20218;-66
2022/07/27 09:22:54;;;;;;;3.65;0.90;;;21.70;88.00;;;;;;5108557;28;20040;-66
2022/07/27 09:25:22;;;;;;;4.72;1.10;;;22.10;87.50;;;;;;5108398;28;20093;-66
2022/07/27 09:27:52;;;;;;;4.63;1.05;;;22.20;87.00;;;;;;5106830;28;20462;-66
2022/07/27 09:30:20;;;;;;;5.30;1.35;;;22.00;85.10;;;;;;5108679;28;20059;-65
2022/07/27 09:33:05;;;;;;;5.05;1.13;;;21.80;84.80;;;;;;5108064;28;20043;-65
2022/07/27 09:35:33;;;;;;;4.35;0.98;;;21.60;85.80;;;;;;5109904;28;20066;-64
2022/07/27 09:38:21;;;;;;;3.78;0.90;;;21.60;85.90;;;;;;5105307;28;20328;-65
2022/07/27 09:40:56;;;;;;;5.03;1.00;;;22.00;84.20;;;;;;5108300;28;20126;-65
2022/07/27 09:43:22;;;;;;;4.47;1.00;;;22.00;84.40;;;;;;5108664;28;20044;-66
2022/07/27 09:45:48;;;;;;;2.55;0.85;;;22.10;84.20;;;;;;5109665;28;20039;-66
2022/07/27 09:48:16;;;;;;;4.03;0.93;;;21.80;83.40;;;;;;5105891;28;20393;-65
2022/07/27 09:50:46;;;;;;;4.80;1.10;;;21.50;83.60;;;;;;5107777;28;20032;-65
2022/07/27 09:53:13;;;;;;;4.82;1.10;;;21.20;83.50;;;;;;5105382;28;20032;-65
2022/07/27 09:55:40;;;;;;;4.28;1.23;;;20.90;85.90;;;;;;5106807;28;20090;-66
2022/07/27 09:58:06;;;;;;;3.92;1.15;;;20.40;88.20;;;;;;5105171;28;20046;-66
2022/07/27 10:00:32;;;;;;;3.42;1.00;;;20.30;90.00;;;;;;5107964;28;20031;-65
2022/07/27 10:02:58;;;;;;;4.72;1.13;;;20.20;90.50;;;;;;5108632;28;20055;-66
2022/07/27 10:05:24;;;;;;;5.20;1.25;;;20.10;90.90;;;;;;5108941;28;20052;-66
2022/07/27 10:07:52;;;;;;;4.70;1.20;;;20.10;91.30;;;;;;5106422;28;20154;-66
2022/07/27 10:10:18;;;;;;;4.25;1.25;;;20.20;91.50;;;;;;5108437;28;20047;-66
2022/07/27 10:12:43;;;;;;;4.47;1.02;;;20.10;91.60;;;;;;5108105;28;20046;-66
2022/07/27 10:15:12;;;;;;;8.77;1.50;;;20.00;91.50;;;;;;5106120;28;20115;-65
2022/07/27 10:17:40;;;;;;;5.50;1.42;;;20.00;91.40;;;;;;5106794;28;20045;-66
2022/07/27 10:20:08;;;;;;;5.15;1.25;;;20.30;91.60;;;;;;5106299;28;20047;-65
2022/07/27 10:22:55;;;;;;;5.38;1.40;;;20.60;91.30;;;;;;5107273;28;20455;-65
2022/07/27 10:25:23;;;;;;;5.25;1.10;;;20.90;91.00;;;;;;5109058;28;20065;-65
2022/07/27 10:28:09;;;;;;;3.00;0.90;;;20.90;90.90;;;;;;5107089;28;20047;-65
2022/07/27 10:30:34;;;;;;;5.53;0.85;;;21.10;91.00;;;;;;5107327;28;20126;-65
2022/07/27 10:33:31;;;;;;;4.45;1.35;;;21.30;90.40;;;;;;5105851;28;20114;-65
2022/07/27 10:35:57;;;;;;;3.97;1.17;;;21.40;90.10;;;;;;5107355;28;20071;-65
2022/07/27 10:38:22;;;;;;;3.28;1.10;;;21.30;90.00;;;;;;5106971;28;20469;-66
2022/07/27 10:41:24;;;;;;;4.82;1.10;;;21.20;90.20;;;;;;5107797;28;20096;-65
2022/07/27 10:44:16;;;;;;;4.18;1.15;;;21.20;89.80;;;;;;5105532;28;20062;-65
2022/07/27 10:46:51;;;;;;;5.20;1.10;;;21.20;89.20;;;;;;5106298;28;20039;-65
2022/07/27 10:49:20;;;;;;;3.15;1.00;;;21.30;88.90;;;;;;5106927;28;20054;-65
2022/07/27 10:51:46;;;;;;;4.65;0.95;;;21.30;88.50;;;;;;5107197;28;20139;-65
2022/07/27 10:54:19;;;;;;;3.95;1.08;;;21.40;88.40;;;;;;5113011;28;20035;-66
2022/07/27 10:56:46;;;;;;;4.50;1.10;;;21.50;86.60;;;;;;5111358;28;20044;-65
2022/07/27 10:59:11;;;;;;;4.95;1.02;;;21.40;87.10;;;;;;5109132;28;20048;-65
2022/07/27 11:01:55;;;;;;;4.40;1.10;;;21.50;86.90;;;;;;5110293;28;20036;-65
2022/07/27 11:04:22;;;;;;;5.13;1.10;;;21.60;86.70;;;;;;5112077;28;20147;-66
2022/07/27 11:06:55;;;;;;;4.28;1.10;;;21.60;86.50;;;;;;5111506;28;20337;-65
2022/07/27 11:09:21;;;;;;;3.38;1.02;;;21.60;86.30;;;;;;5111501;28;20069;-66
2022/07/27 11:11:48;;;;;;;4.45;1.10;;;21.50;86.60;;;;;;5110922;28;20035;-65
2022/07/27 11:14:14;;;;;;;4.93;1.17;;;21.80;85.70;;;;;;5111279;28;20092;-66
2022/07/27 11:16:39;;;;;;;4.57;1.23;;;22.00;85.20;;;;;;5109123;28;20388;-66
2022/07/27 11:19:06;;;;;;;3.95;1.05;;;22.20;84.30;;;;;;5109751;28;20062;-66
2022/07/27 11:21:36;;;;;;;1.92;0.70;;;22.50;83.10;;;;;;5111115;28;20047;-66
2022/07/27 11:24:04;;;;;;;4.38;1.02;;;22.70;82.20;;;;;;5110647;28;20051;-65
2022/07/27 11:26:37;;;;;;;4.63;0.90;;;23.00;82.20;;;;;;5109227;28;20053;-66
2022/07/27 11:29:06;;;;;;;4.03;1.00;;;23.10;81.50;;;;;;5108656;28;20119;-65
2022/07/27 11:31:34;;;;;;;3.53;0.90;;;23.20;80.40;;;;;;5109444;28;20047;-66
2022/07/27 11:34:00;;;;;;;5.55;1.00;;;23.20;78.80;;;;;;5110824;28;20222;-66
2022/07/27 11:36:43;;;;;;;4.20;1.20;;;23.40;77.90;;;;;;5111230;28;20206;-66
2022/07/27 11:39:14;;;;;;;3.75;1.10;;;23.40;77.80;;;;;;5109815;28;20085;-66
2022/07/27 11:41:41;;;;;;;5.22;1.05;;;23.40;78.10;;;;;;5111166;28;20047;-66
2022/07/27 11:44:12;;;;;;;4.22;1.00;;;23.20;78.30;;;;;;5110475;28;20112;-66
2022/07/27 11:46:43;;;;;;;4.35;1.08;;;23.30;78.40;;;;;;5108826;28;20046;-65
2022/07/27 11:49:12;;;;;;;5.80;1.17;;;23.40;78.70;;;;;;5109707;28;20383;-66
2022/07/27 11:51:48;;;;;;;5.28;1.10;;;23.40;78.00;;;;;;5109841;28;20039;-66
2022/07/27 11:54:23;;;;;;;7.22;1.38;;;23.60;76.90;;;;;;5110574;28;20120;-65
2022/07/27 11:56:49;;;;;;;;;;;23.70;77.00;;;;;;5097343;28;20125;-66
2022/07/27 11:59:25;;;;;;;4.28;1.30;;;23.80;77.40;;;;;;5111045;28;19924;-66
2022/07/27 12:01:53;;;;;;;4.28;1.00;;;23.80;77.50;;;;;;5106640;28;20473;-66
2022/07/27 12:04:21;;;;;;;4.78;1.10;;;24.00;77.70;;;;;;5109356;28;20110;-66
2022/07/27 12:07:20;;;;;;;4.38;1.05;;;24.10;77.70;;;;;;5110241;28;20191;-66
2022/07/27 12:09:50;;;;;;;6.07;0.82;;;24.30;76.70;;;;;;5110840;28;20070;-66
2022/07/27 12:12:21;;;;;;;4.53;1.10;;;24.10;75.00;;;;;;5109760;28;20047;-66
2022/07/27 12:14:49;;;;;;;6.50;1.10;;;23.90;75.20;;;;;;5110264;28;20086;-66
2022/07/27 12:17:33;;;;;;;4.00;1.10;;;23.70;75.60;;;;;;5095997;28;20109;-66
2022/07/27 12:20:05;;;;;;;4.07;1.08;;;23.40;76.50;;;;;;5109752;28;20071;-65
2022/07/27 12:22:35;;;;;;;4.85;1.20;;;23.10;76.80;;;;;;5109452;28;20040;-66
2022/07/27 12:25:06;;;;;;;5.53;1.30;;;22.80;77.60;;;;;;5110422;28;20130;-66
2022/07/27 12:27:32;;;;;;;4.07;1.25;;;22.70;78.20;;;;;;5109649;28;20071;-66
2022/07/27 12:29:59;;;;;;;4.13;1.23;;;22.40;79.30;;;;;;5109437;28;20047;-65
2022/07/27 12:32:27;;;;;;;5.18;1.13;;;22.50;79.80;;;;;;5108608;28;20093;-66
2022/07/27 12:34:53;;;;;;;3.78;1.10;;;22.30;78.20;;;;;;5108863;28;20344;-66
2022/07/27 12:37:19;;;;;;;3.60;1.00;;;22.30;77.10;;;;;;5108831;28;20043;-66
2022/07/27 12:39:46;;;;;;;4.38;0.90;;;22.20;77.40;;;;;;5109527;28;20613;-66
2022/07/27 12:42:12;;;;;;;4.05;0.90;;;22.20;77.40;;;;;;5108248;28;20115;-66
2022/07/27 12:44:41;;;;;;;1.42;0.73;;;22.40;76.10;;;;;;5110215;28;20058;-66
2022/07/27 12:49:58;;;;;;;;;;;22.50;73.60;;;;;;5110061;28;20119;-66
2022/07/27 12:52:23;;;;;;;4.25;0.90;;;22.70;73.30;;;;;;5109150;28;19926;-65
2022/07/27 12:54:49;;;;;;;4.90;0.85;;;22.90;73.30;;;;;;5108914;28;20032;-65
2022/07/27 12:57:15;;;;;;;1.80;0.80;;;23.00;71.70;;;;;;5108654;28;20115;-66